Time;durP1;ratioP1;P1;durP2;ratioP2;P2;SDS_P1;SDS_P2;PMS_P1;PMS_P2;Temp;Humidity;BMP_temperature;BMP_pressure;BME280_temperature;BME280_humidity;BME280_pressure;Samples;Min_cycle;Max_cycle;Signal;HPM_P1;HPM_P2
2023/05/20 00:00:14;;;;;;;15.27;8.38;;;;;;;11.02;100.00;94935.88;5012489;28;20659;-75
2023/05/20 00:02:41;;;;;;;12.10;7.13;;;;;;;11.06;100.00;94938.75;5012868;28;20274;-74
2023/05/20 00:05:08;;;;;;;17.35;6.57;;;;;;;11.07;100.00;94938.41;5013163;28;20264;-74
2023/05/20 00:07:35;;;;;;;9.90;6.57;;;;;;;11.00;100.00;94933.50;5012465;28;20216;-73
2023/05/20 00:10:02;;;;;;;12.70;6.43;;;;;;;10.71;100.00;94940.69;5013218;28;20209;-73
2023/05/20 00:12:28;;;;;;;9.13;5.78;;;;;;;10.77;100.00;94947.56;5012409;28;20205;-73
2023/05/20 00:14:55;;;;;;;11.00;6.45;;;;;;;10.82;100.00;94942.75;5012179;28;20617;-73
2023/05/20 00:17:25;;;;;;;12.00;7.15;;;;;;;10.80;100.00;94938.78;5012721;28;20201;-73
2023/05/20 00:19:51;;;;;;;10.77;6.50;;;;;;;10.80;100.00;94945.00;5003815;28;20292;-74
2023/05/20 00:22:18;;;;;;;11.57;6.03;;;;;;;10.80;100.00;94938.78;5012804;28;20197;-74
2023/05/20 00:24:45;;;;;;;11.48;6.82;;;;;;;10.80;100.00;94941.47;5012349;28;20653;-75
2023/05/20 00:27:12;;;;;;;10.38;6.03;;;;;;;10.72;100.00;94942.28;5012464;28;20618;-76
2023/05/20 00:29:38;;;;;;;13.80;6.45;;;;;;;10.67;100.00;94925.09;5004830;28;20237;-74
2023/05/20 00:32:06;;;;;;;10.07;6.10;;;;;;;10.68;100.00;94932.09;5012352;28;20201;-74
2023/05/20 00:34:34;;;;;;;14.52;6.13;;;;;;;10.64;100.00;94925.75;5004712;28;20201;-75
2023/05/20 00:37:01;;;;;;;10.38;5.70;;;;;;;10.47;100.00;94916.81;5006672;28;20202;-74
2023/05/20 00:39:29;;;;;;;12.93;5.30;;;;;;;10.37;100.00;94914.44;5011727;28;20201;-74
2023/05/20 00:41:59;;;;;;;11.77;5.63;;;;;;;10.37;100.00;94925.28;5012529;28;20294;-75
2023/05/20 00:44:26;;;;;;;10.52;5.72;;;;;;;10.26;100.00;94922.06;5011990;28;20259;-74
2023/05/20 00:46:53;;;;;;;11.32;5.93;;;;;;;10.21;100.00;94906.00;5011889;28;20287;-73
2023/05/20 00:49:21;;;;;;;8.88;5.88;;;;;;;10.20;100.00;94912.53;5011953;28;20263;-74
2023/05/20 00:51:49;;;;;;;11.20;5.38;;;;;;;10.20;100.00;94907.09;5011755;28;20675;-75
2023/05/20 00:54:16;;;;;;;9.43;5.47;;;;;;;10.28;100.00;94911.72;5011830;28;20200;-74
2023/05/20 00:56:43;;;;;;;15.23;6.45;;;;;;;10.20;100.00;94916.03;5011692;28;20219;-74
2023/05/20 00:59:10;;;;;;;11.27;5.75;;;;;;;10.27;100.00;94899.28;5011129;28;20263;-73
2023/05/20 01:01:37;;;;;;;12.27;5.68;;;;;;;10.28;100.00;94898.19;5011593;28;20256;-75
2023/05/20 01:04:04;;;;;;;8.32;5.60;;;;;;;10.28;100.00;94895.47;5004789;28;20209;-74
2023/05/20 01:06:32;;;;;;;12.45;5.70;;;;;;;10.32;100.00;94907.25;5011020;28;20287;-74
2023/05/20 01:09:00;;;;;;;12.50;5.85;;;;;;;10.31;100.00;94901.06;5009601;28;20689;-75
2023/05/20 01:11:33;;;;;;;12.38;5.72;;;;;;;10.25;100.00;94898.84;5011503;28;20209;-73
2023/05/20 01:14:03;;;;;;;10.48;6.07;;;;;;;10.20;100.00;94909.81;5004001;28;20209;-74
2023/05/20 01:16:32;;;;;;;10.73;5.75;;;;;;;10.30;100.00;94914.91;5011595;28;20255;-73
2023/05/20 01:19:02;;;;;;;9.85;5.85;;;;;;;10.23;100.00;94906.47;5012087;28;20287;-74
2023/05/20 01:21:31;;;;;;;14.38;5.85;;;;;;;10.23;100.00;94920.03;5011386;28;20320;-74
2023/05/20 01:24:00;;;;;;;14.05;5.63;;;;;;;10.21;100.00;94924.94;5006543;28;20245;-75
2023/05/20 01:26:27;;;;;;;12.75;5.97;;;;;;;10.18;100.00;94917.41;5005283;28;20237;-75
2023/05/20 01:28:56;;;;;;;9.27;5.63;;;;;;;10.25;100.00;94923.22;5008222;28;20809;-75
2023/05/20 01:31:26;;;;;;;10.82;5.53;;;;;;;10.14;100.00;94916.44;4998075;28;20229;-75
2023/05/20 01:33:56;;;;;;;8.63;5.00;;;;;;;10.12;100.00;94924.88;5002210;28;20291;-74
2023/05/20 01:36:26;;;;;;;14.43;5.95;;;;;;;9.95;100.00;94925.69;5011194;28;20201;-74
2023/05/20 01:38:54;;;;;;;9.13;5.28;;;;;;;9.86;100.00;94894.28;5005285;28;20206;-74
2023/05/20 01:41:25;;;;;;;11.05;6.20;;;;;;;10.01;100.00;94909.28;5010296;28;20243;-74
2023/05/20 01:43:52;;;;;;;9.50;5.90;;;;;;;10.04;100.00;94911.34;5011356;28;20691;-74
2023/05/20 01:46:19;;;;;;;13.15;6.03;;;;;;;10.04;100.00;94906.75;4999903;28;20221;-74
2023/05/20 01:48:45;;;;;;;7.60;4.55;;;;;;;10.34;100.00;94905.03;5002792;28;20205;-74
2023/05/20 01:51:12;;;;;;;10.95;5.20;;;;;;;10.22;100.00;94896.75;5010345;28;20196;-74
2023/05/20 01:53:39;;;;;;;12.48;5.38;;;;;;;10.21;100.00;94900.59;5011341;28;20247;-74
2023/05/20 01:56:06;;;;;;;11.32;5.82;;;;;;;10.08;100.00;94896.88;5011273;28;20223;-74
2023/05/20 01:58:34;;;;;;;14.43;6.47;;;;;;;10.06;100.00;94909.94;5008087;28;20197;-75
2023/05/20 02:01:02;;;;;;;16.40;6.60;;;;;;;10.11;100.00;94898.97;5007877;28;20251;-74
2023/05/20 02:03:29;;;;;;;11.75;6.53;;;;;;;10.22;100.00;94902.97;5010924;28;20288;-75
2023/05/20 02:05:55;;;;;;;14.45;7.70;;;;;;;10.22;100.00;94894.06;5010730;28;20239;-75
2023/05/20 02:08:22;;;;;;;10.30;6.68;;;;;;;10.23;100.00;94899.16;5010478;28;20212;-75
2023/05/20 02:10:49;;;;;;;11.70;5.65;;;;;;;10.19;100.00;94897.41;5005414;28;20210;-74
2023/05/20 02:13:16;;;;;;;8.80;5.70;;;;;;;10.18;100.00;94898.47;5010790;28;20229;-74
2023/05/20 02:15:44;;;;;;;12.32;7.07;;;;;;;10.24;100.00;94886.41;5010085;28;20564;-74
2023/05/20 02:18:12;;;;;;;11.35;6.40;;;;;;;10.30;100.00;94893.25;5009842;28;20227;-74
2023/05/20 02:20:40;;;;;;;10.40;5.53;;;;;;;10.23;100.00;94906.47;5010448;28;20251;-74
2023/05/20 02:23:07;;;;;;;19.95;6.40;;;;;;;10.19;100.00;94905.50;5010352;28;20247;-74
2023/05/20 02:25:34;;;;;;;9.27;5.32;;;;;;;10.05;100.00;94902.94;5009841;28;20235;-75
2023/05/20 02:28:04;;;;;;;11.07;5.85;;;;;;;10.10;100.00;94900.06;5007757;28;20619;-74
2023/05/20 02:30:31;;;;;;;8.32;5.15;;;;;;;10.10;100.00;94896.56;5005916;28;20243;-74
2023/05/20 02:32:59;;;;;;;12.32;5.00;;;;;;;10.03;100.00;94890.81;5009950;28;20564;-74
2023/05/20 02:35:26;;;;;;;10.75;5.90;;;;;;;10.01;100.00;94891.13;5009318;28;20201;-75
2023/05/20 02:37:52;;;;;;;8.93;5.20;;;;;;;9.98;100.00;94884.44;5009608;28;20275;-75
2023/05/20 02:40:19;;;;;;;8.80;5.72;;;;;;;9.99;100.00;94887.94;5001548;28;20296;-75
2023/05/20 02:42:46;;;;;;;8.02;5.10;;;;;;;9.98;100.00;94892.56;5008114;28;20209;-75
2023/05/20 02:45:13;;;;;;;9.20;4.95;;;;;;;9.90;100.00;94890.66;5004816;28;20259;-75
2023/05/20 02:47:40;;;;;;;11.07;5.50;;;;;;;9.87;100.00;94895.88;5009504;28;20307;-74
2023/05/20 02:50:08;;;;;;;7.85;4.78;;;;;;;9.83;100.00;94895.75;5010148;28;20209;-74
2023/05/20 02:52:36;;;;;;;12.85;5.45;;;;;;;9.81;100.00;94887.16;5004756;28;20709;-74
2023/05/20 02:55:02;;;;;;;9.57;5.15;;;;;;;9.88;100.00;94898.28;5005599;28;20202;-74
2023/05/20 02:57:30;;;;;;;7.97;4.90;;;;;;;9.88;100.00;94887.47;5007829;28;21143;-75
2023/05/20 02:59:56;;;;;;;11.10;5.53;;;;;;;9.90;100.00;94890.66;5009653;28;20209;-76
2023/05/20 03:02:23;;;;;;;8.43;5.00;;;;;;;9.93;100.00;94890.03;5009313;28;20683;-75
2023/05/20 03:04:52;;;;;;;9.70;5.45;;;;;;;9.98;100.00;94892.56;5009711;28;20213;-75
2023/05/20 03:07:21;;;;;;;9.50;5.82;;;;;;;10.12;100.00;94891.63;5009171;28;20306;-75
2023/05/20 03:09:48;;;;;;;8.70;5.85;;;;;;;10.08;100.00;94896.09;5002853;28;20206;-74
2023/05/20 03:12:14;;;;;;;9.60;5.60;;;;;;;10.35;100.00;94895.00;5002915;28;20260;-75
2023/05/20 03:14:41;;;;;;;7.95;5.57;;;;;;;10.48;100.00;94884.00;5007483;28;20208;-74
2023/05/20 03:17:08;;;;;;;8.98;5.28;;;;;;;11.02;99.04;94903.34;5003133;28;20200;-75
2023/05/20 03:19:35;;;;;;;9.35;5.15;;;;;;;11.14;97.14;94906.19;5009111;28;20231;-76
2023/05/20 03:22:02;;;;;;;9.48;6.05;;;;;;;11.64;95.17;94908.19;5008697;28;20211;-75
2023/05/20 03:24:31;;;;;;;12.65;5.38;;;;;;;11.82;92.48;94903.50;5009694;28;20223;-74
2023/05/20 03:26:57;;;;;;;9.07;5.50;;;;;;;11.89;91.35;94910.00;5006442;28;20239;-75
2023/05/20 03:29:24;;;;;;;11.82;6.57;;;;;;;12.76;90.91;94904.72;5009922;28;20229;-74
2023/05/20 03:31:51;;;;;;;15.13;7.25;;;;;;;13.38;86.88;94899.13;5011278;28;20244;-75
2023/05/20 03:34:17;;;;;;;10.05;6.05;;;;;;;14.26;83.39;94889.44;5008490;28;20615;-74
2023/05/20 03:36:45;;;;;;;10.38;6.20;;;;;;;14.90;80.63;94892.06;5006986;28;20264;-75
2023/05/20 03:39:11;;;;;;;8.40;5.78;;;;;;;15.55;77.04;94900.84;5009540;28;20227;-74
2023/05/20 03:41:39;;;;;;;8.32;4.95;;;;;;;15.99;73.23;94903.44;5008786;28;20664;-74
2023/05/20 03:44:06;;;;;;;10.68;5.60;;;;;;;16.75;71.75;94891.06;5009379;28;20539;-74
2023/05/20 03:46:33;;;;;;;7.40;5.20;;;;;;;17.05;71.50;94891.28;5009082;28;20319;-74
2023/05/20 03:49:00;;;;;;;10.02;6.40;;;;;;;17.52;70.20;94896.44;4995015;28;20201;-74
2023/05/20 03:51:27;;;;;;;17.30;6.50;;;;;;;17.61;68.48;94899.75;5007446;28;20301;-75
2023/05/20 03:53:54;;;;;;;9.57;6.68;;;;;;;18.63;67.08;94890.75;5008764;28;20659;-76
2023/05/20 03:56:21;;;;;;;9.65;6.72;;;;;;;17.95;66.13;94902.66;5009176;28;20216;-74
2023/05/20 03:58:49;;;;;;;11.38;7.93;;;;;;;19.13;63.11;94894.91;5007199;28;20274;-74
2023/05/20 04:01:16;;;;;;;9.13;6.18;;;;;;;19.08;63.04;94893.28;4999858;28;20190;-74
2023/05/20 04:03:42;;;;;;;9.57;7.30;;;;;;;19.31;61.59;94893.13;5008906;28;20231;-75
2023/05/20 04:06:09;;;;;;;10.15;6.82;;;;;;;19.52;61.49;94895.34;5001998;28;20232;-74
2023/05/20 04:08:36;;;;;;;11.18;6.07;;;;;;;20.42;60.06;94898.44;5003285;28;20204;-74
2023/05/20 04:11:03;;;;;;;10.82;5.60;;;;;;;20.61;57.91;94915.88;5007375;28;20209;-75
2023/05/20 04:13:30;;;;;;;12.30;5.88;;;;;;;21.07;56.58;94900.34;5008971;28;20205;-74
2023/05/20 04:15:59;;;;;;;14.82;7.72;;;;;;;21.42;55.00;94905.22;5008888;28;20541;-74
2023/05/20 04:18:28;;;;;;;11.30;7.75;;;;;;;21.71;53.73;94911.59;5007615;28;20284;-75
2023/05/20 04:20:56;;;;;;;13.65;7.00;;;;;;;21.98;53.01;94898.19;5008861;28;20257;-74
2023/05/20 04:23:22;;;;;;;11.77;7.65;;;;;;;22.31;51.57;94899.78;4998265;28;20292;-74
2023/05/20 04:25:49;;;;;;;15.25;8.85;;;;;;;22.89;50.83;94901.28;5008775;28;20286;-74
2023/05/20 04:28:16;;;;;;;13.80;8.63;;;;;;;23.24;50.25;94903.09;5008265;28;20229;-74
2023/05/20 04:30:43;;;;;;;14.35;7.15;;;;;;;23.27;50.63;94889.28;5008401;28;20364;-74
2023/05/20 04:33:13;;;;;;;12.57;8.55;;;;;;;24.25;48.44;94886.28;5008922;28;20276;-75
2023/05/20 04:35:41;;;;;;;11.57;7.93;;;;;;;24.77;46.74;94888.94;5008760;28;20205;-75
2023/05/20 04:38:08;;;;;;;14.45;8.02;;;;;;;24.95;46.30;94897.09;5008311;28;20220;-74
2023/05/20 04:40:35;;;;;;;11.00;7.93;;;;;;;25.28;45.68;94890.78;5010151;28;20205;-74
2023/05/20 04:43:02;;;;;;;11.07;7.75;;;;;;;26.35;43.23;94886.47;5007600;28;20287;-74
2023/05/20 04:45:29;;;;;;;11.13;7.63;;;;;;;25.98;43.23;94893.75;5004318;28;20201;-75
2023/05/20 04:47:56;;;;;;;12.02;8.32;;;;;;;25.62;43.40;94898.25;5006671;28;21057;-74
2023/05/20 04:50:24;;;;;;;11.43;8.95;;;;;;;25.79;43.17;94903.56;5004868;28;20197;-74
2023/05/20 04:52:51;;;;;;;12.52;9.10;;;;;;;25.58;42.80;94908.59;5010738;28;20279;-74
2023/05/20 04:55:20;;;;;;;12.93;8.60;;;;;;;25.30;44.15;94907.75;5005926;28;20248;-74
2023/05/20 04:57:47;;;;;;;16.85;8.93;;;;;;;25.13;44.58;94906.00;4998417;28;20368;-74
2023/05/20 05:00:14;;;;;;;11.32;9.02;;;;;;;25.66;44.28;94899.78;5011563;28;20275;-74
2023/05/20 05:02:42;;;;;;;11.25;8.75;;;;;;;25.89;43.57;94899.06;5011922;28;20205;-74
2023/05/20 05:05:09;;;;;;;16.20;8.95;;;;;;;26.68;42.26;94902.13;5012090;28;20198;-74
2023/05/20 05:07:37;;;;;;;11.57;8.38;;;;;;;27.44;41.23;94900.31;5006338;28;20365;-74
2023/05/20 05:10:04;;;;;;;13.02;8.45;;;;;;;27.63;40.28;94897.94;5006333;28;20197;-74
2023/05/20 05:12:31;;;;;;;12.23;8.10;;;;;;;26.93;41.23;94898.91;5008695;28;20201;-75
2023/05/20 05:14:58;;;;;;;10.80;8.45;;;;;;;27.78;39.26;94904.75;5005217;28;20206;-74
2023/05/20 05:17:25;;;;;;;12.82;8.40;;;;;;;27.75;39.55;94908.41;5003420;28;20205;-75
2023/05/20 05:19:51;;;;;;;12.10;8.80;;;;;;;28.76;37.78;94911.97;5011679;28;20229;-74
2023/05/20 05:22:18;;;;;;;12.57;8.60;;;;;;;28.45;37.92;94896.81;5011363;28;20259;-75
2023/05/20 05:24:46;;;;;;;14.85;8.90;;;;;;;28.06;39.00;94892.19;5008756;28;20205;-75
2023/05/20 05:27:13;;;;;;;14.15;8.48;;;;;;;28.96;37.37;94898.72;5009715;28;20286;-74
2023/05/20 05:29:40;;;;;;;14.90;9.15;;;;;;;27.24;40.26;94902.28;5010932;28;20600;-76
2023/05/20 05:32:07;;;;;;;20.58;8.95;;;;;;;28.54;39.05;94888.66;5006812;28;20201;-75
2023/05/20 05:34:34;;;;;;;13.07;8.35;;;;;;;29.45;36.66;94884.59;5008270;28;20213;-75
2023/05/20 05:37:00;;;;;;;12.07;8.35;;;;;;;29.76;36.54;94882.09;5007464;28;20197;-75
2023/05/20 05:39:27;;;;;;;13.45;9.27;;;;;;;29.81;36.52;94877.94;5009643;28;20618;-74
2023/05/20 05:41:56;;;;;;;11.90;8.70;;;;;;;30.00;36.61;94885.34;4997643;28;20201;-78
2023/05/20 05:44:22;;;;;;;10.25;7.75;;;;;;;30.11;34.19;94880.19;5005811;28;20300;-75
2023/05/20 05:46:49;;;;;;;11.07;6.88;;;;;;;30.29;33.73;94880.41;5005083;28;20229;-76
2023/05/20 05:49:16;;;;;;;9.50;7.38;;;;;;;30.70;33.49;94875.88;5003411;28;20674;-74
2023/05/20 05:51:42;;;;;;;13.68;7.60;;;;;;;29.14;34.68;94891.84;5002434;28;20204;-76
2023/05/20 05:54:09;;;;;;;13.25;7.78;;;;;;;29.99;34.41;94883.78;5003607;28;20251;-75
2023/05/20 05:56:36;;;;;;;14.27;8.38;;;;;;;30.01;33.92;94887.72;5002511;28;20201;-75
2023/05/20 05:59:04;;;;;;;9.13;7.65;;;;;;;29.83;34.25;94881.06;5002159;28;20205;-73
2023/05/20 06:01:31;;;;;;;15.73;8.95;;;;;;;28.02;37.54;94881.09;5002244;28;20216;-75
2023/05/20 06:03:58;;;;;;;12.35;8.77;;;;;;;27.55;38.26;94889.72;5002519;28;20649;-75
2023/05/20 06:06:25;;;;;;;15.43;8.75;;;;;;;27.39;38.79;94884.09;5007588;28;20209;-75
2023/05/20 06:08:51;;;;;;;12.85;7.95;;;;;;;28.13;37.53;94878.88;4999929;28;20210;-74
2023/05/20 06:11:19;;;;;;;14.30;8.35;;;;;;;28.17;37.04;94881.56;5002427;28;20208;-74
2023/05/20 06:13:46;;;;;;;9.68;7.78;;;;;;;28.98;36.12;94873.13;5002824;28;20652;-75
2023/05/20 06:16:14;;;;;;;11.55;7.80;;;;;;;27.53;38.15;94878.22;4999878;28;20256;-77
2023/05/20 06:18:41;;;;;;;9.30;7.88;;;;;;;27.11;39.67;94863.22;5002458;28;20240;-74
2023/05/20 06:21:08;;;;;;;9.73;6.90;;;;;;;28.18;37.61;94866.41;5003085;28;21037;-75
2023/05/20 06:23:35;;;;;;;10.32;6.85;;;;;;;29.16;35.55;94867.06;4999485;28;20197;-72
2023/05/20 06:26:02;;;;;;;10.70;8.10;;;;;;;29.53;35.67;94871.97;5004223;28;20213;-73
2023/05/20 06:28:30;;;;;;;11.30;7.82;;;;;;;29.11;36.77;94870.41;5006453;28;20263;-77
2023/05/20 06:30:57;;;;;;;11.80;6.88;;;;;;;28.56;37.82;94875.84;5001771;28;20600;-76
2023/05/20 06:39:24;;;;;;;10.45;6.07;;;;;;;29.86;32.87;94841.06;5126676;27;1392165;-77
2023/05/20 06:41:51;;;;;;;6.05;4.78;;;;;;;30.37;33.61;94841.81;5164256;27;20196;-75
2023/05/20 06:44:19;;;;;;;12.55;5.57;;;;;;;29.34;33.52;94850.59;5160943;27;20550;-74
2023/05/20 06:46:46;;;;;;;9.27;5.28;;;;;;;27.07;37.63;94850.56;5169124;27;20654;-75
2023/05/20 06:49:12;;;;;;;7.32;5.13;;;;;;;27.05;36.17;94853.03;5168535;27;20203;-74
2023/05/20 06:51:39;;;;;;;11.05;4.70;;;;;;;26.46;36.68;94856.50;5159828;27;20206;-73
2023/05/20 06:54:06;;;;;;;8.07;4.72;;;;;;;26.61;38.30;94852.25;5155909;27;20243;-74
2023/05/20 06:56:34;;;;;;;5.75;4.88;;;;;;;28.56;36.01;94847.97;5163137;27;20199;-77
2023/05/20 06:59:01;;;;;;;6.28;5.28;;;;;;;28.76;34.79;94850.59;5155561;27;20223;-75
2023/05/20 07:01:28;;;;;;;6.88;5.18;;;;;;;27.86;35.18;94861.63;5154973;27;20288;-75
2023/05/20 07:03:54;;;;;;;7.75;5.15;;;;;;;27.02;37.08;94860.22;5163235;27;20715;-75
2023/05/20 07:06:21;;;;;;;8.32;5.40;;;;;;;26.74;36.98;94867.09;5153443;27;20204;-75
2023/05/20 07:08:48;;;;;;;6.68;5.38;;;;;;;26.72;37.45;94863.94;5162053;27;20207;-74
2023/05/20 07:11:15;;;;;;;7.78;5.03;;;;;;;26.67;37.14;94855.31;5152715;27;20716;-74
2023/05/20 07:13:43;;;;;;;10.35;5.50;;;;;;;26.02;38.14;94858.41;5155151;27;20203;-75
2023/05/20 07:16:10;;;;;;;8.20;5.22;;;;;;;25.76;37.73;94859.22;5165015;27;20215;-75
2023/05/20 07:18:37;;;;;;;8.75;5.32;;;;;;;24.89;39.78;94862.69;5168043;27;20230;-75
2023/05/20 07:21:04;;;;;;;9.60;5.43;;;;;;;25.73;39.61;94866.38;5144942;27;20196;-76
2023/05/20 07:23:30;;;;;;;7.13;5.45;;;;;;;25.98;39.56;94854.88;5147474;27;20249;-75
2023/05/20 07:25:57;;;;;;;8.05;4.95;;;;;;;25.90;37.75;94845.09;5146236;27;20720;-76
2023/05/20 07:28:24;;;;;;;7.15;5.13;;;;;;;26.29;38.46;94840.91;5146999;27;20196;-76
2023/05/20 07:30:52;;;;;;;9.05;5.20;;;;;;;27.11;36.35;94842.94;5142194;27;20647;-77
2023/05/20 07:33:19;;;;;;;11.23;5.35;;;;;;;26.49;37.46;94841.75;5145122;27;20193;-77
2023/05/20 07:35:46;;;;;;;9.13;5.35;;;;;;;26.59;37.49;94842.75;5144360;27;20291;-76
2023/05/20 07:38:13;;;;;;;6.10;5.22;;;;;;;25.69;37.83;94846.22;5143168;27;20706;-77
2023/05/20 07:40:40;;;;;;;7.57;5.40;;;;;;;25.83;38.49;94848.78;5146059;27;20257;-77
2023/05/20 07:43:07;;;;;;;8.30;4.97;;;;;;;25.57;37.96;94852.31;5136824;27;20284;-77
2023/05/20 07:45:35;;;;;;;9.25;5.53;;;;;;;25.32;38.92;94844.34;5143174;27;20205;-76
2023/05/20 07:48:03;;;;;;;7.72;4.93;;;;;;;24.99;39.65;94868.16;5125621;27;20294;-76
2023/05/20 07:50:30;;;;;;;7.35;5.38;;;;;;;24.45;39.78;94861.59;5130461;27;20200;-77
2023/05/20 07:52:57;;;;;;;10.00;5.45;;;;;;;25.58;39.78;94858.63;5132117;27;20197;-77
2023/05/20 07:55:24;;;;;;;6.60;5.70;;;;;;;26.04;38.53;94842.09;5133199;27;20201;-77
2023/05/20 07:57:51;;;;;;;7.78;5.75;;;;;;;25.38;39.40;94841.91;5132310;27;20257;-76
2023/05/20 08:00:18;;;;;;;8.80;5.47;;;;;;;26.25;38.60;94845.72;5131532;27;20208;-76
2023/05/20 08:02:45;;;;;;;10.75;5.97;;;;;;;25.98;39.14;94838.22;5121378;27;20222;-77
2023/05/20 08:05:13;;;;;;;9.20;5.50;;;;;;;25.39;38.73;94841.47;5114036;27;20206;-75
2023/05/20 08:07:40;;;;;;;11.63;5.68;;;;;;;24.75;40.20;94852.53;5132098;27;20194;-76
2023/05/20 08:10:08;;;;;;;7.35;5.47;;;;;;;24.82;40.96;94846.16;5122784;27;20250;-74
2023/05/20 08:12:35;;;;;;;6.88;5.50;;;;;;;25.05;40.09;94838.75;5119742;27;20213;-76
2023/05/20 08:15:01;;;;;;;7.13;5.70;;;;;;;25.71;38.60;94841.03;5125266;27;20205;-77
2023/05/20 08:19:16;;;;;;;8.40;5.93;;;;;;;24.67;40.65;94840.75;5115344;27;1336361;-76
2023/05/20 08:21:43;;;;;;;8.38;5.90;;;;;;;25.30;40.16;94838.41;5148419;27;20255;-78
2023/05/20 08:24:10;;;;;;;9.02;5.95;;;;;;;25.00;40.45;94838.44;5148410;27;20209;-77
2023/05/20 08:26:36;;;;;;;8.93;5.72;;;;;;;25.20;40.85;94833.03;5148206;27;20611;-77
2023/05/20 08:29:03;;;;;;;8.07;6.00;;;;;;;25.59;40.18;94832.47;5147900;27;20201;-80
2023/05/20 08:31:30;;;;;;;8.05;6.35;;;;;;;25.68;41.88;94828.00;5148448;27;20265;-78
2023/05/20 08:33:56;;;;;;;9.27;6.15;;;;;;;25.46;40.18;94824.72;5148344;27;20196;-79
2023/05/20 08:36:25;;;;;;;9.10;5.78;;;;;;;24.50;41.14;94841.75;5148101;27;20223;-82
2023/05/20 08:38:51;;;;;;;10.43;6.72;;;;;;;24.68;40.57;94836.00;5147224;27;20236;-76
2023/05/20 08:41:21;;;;;;;7.65;5.88;;;;;;;24.32;41.09;94830.06;5144773;27;20650;-77
2023/05/20 08:43:49;;;;;;;8.77;6.07;;;;;;;24.80;40.25;94832.69;5147708;27;20188;-77
2023/05/20 08:46:17;;;;;;;7.88;5.85;;;;;;;24.71;43.10;94835.97;5147582;27;20196;-77
2023/05/20 08:48:43;;;;;;;7.47;6.40;;;;;;;23.53;43.53;94829.09;5147786;27;20200;-79
2023/05/20 08:51:11;;;;;;;10.15;5.88;;;;;;;23.38;44.37;94840.22;5147958;27;20202;-74
2023/05/20 08:53:40;;;;;;;8.70;6.28;;;;;;;22.96;44.61;94830.19;5147907;27;20193;-77
2023/05/20 08:56:08;;;;;;;6.97;5.28;;;;;;;22.32;45.17;94848.91;5147935;27;20675;-83
2023/05/20 08:58:34;;;;;;;9.48;6.15;;;;;;;22.35;45.53;94856.41;5147537;27;20220;-77
2023/05/20 09:01:01;;;;;;;7.43;5.70;;;;;;;22.48;45.26;94829.94;5146402;27;20204;-78
2023/05/20 09:03:29;;;;;;;9.07;5.82;;;;;;;22.40;46.47;94836.69;5147164;27;20566;-79
2023/05/20 09:06:04;;;;;;;9.73;6.00;;;;;;;22.42;46.18;94827.97;5147848;27;20696;-79
2023/05/20 09:08:31;;;;;;;9.65;6.03;;;;;;;22.37;46.30;94826.44;5147751;27;20201;-77
2023/05/20 09:11:00;;;;;;;7.93;5.72;;;;;;;22.65;46.25;94831.88;5147861;27;20200;-78
2023/05/20 09:13:27;;;;;;;7.25;5.93;;;;;;;22.66;44.29;94836.22;5143058;27;20200;-78
2023/05/20 09:15:54;;;;;;;8.93;5.75;;;;;;;22.27;46.45;94827.25;5141991;27;20214;-80
2023/05/20 09:18:20;;;;;;;7.28;5.80;;;;;;;22.57;45.97;94824.78;5124074;28;20232;-77
2023/05/20 09:20:51;;;;;;;7.70;5.75;;;;;;;22.67;45.83;94810.16;5120977;28;20668;-79
2023/05/20 09:23:19;;;;;;;7.65;5.88;;;;;;;22.71;46.11;94815.66;5124274;28;20193;-78
2023/05/20 09:25:50;;;;;;;9.32;6.13;;;;;;;22.78;45.72;94806.59;5109938;28;20661;-81
2023/05/20 09:28:19;;;;;;;7.22;5.95;;;;;;;23.24;45.74;94796.06;5117307;28;20194;-78
2023/05/20 09:30:49;;;;;;;10.63;6.30;;;;;;;23.50;44.64;94802.25;5108525;28;20194;-80
2023/05/20 09:33:16;;;;;;;7.43;5.78;;;;;;;22.87;43.58;94810.50;5108665;28;20194;-75
2023/05/20 09:35:43;;;;;;;7.82;6.10;;;;;;;22.35;45.75;94795.69;5112821;28;20609;-76
2023/05/20 09:38:11;;;;;;;10.15;6.30;;;;;;;22.85;46.27;94804.59;5099022;28;20244;-81
2023/05/20 09:40:39;;;;;;;8.80;5.85;;;;;;;22.95;45.61;94806.53;5099685;28;20201;-74
2023/05/20 09:43:07;;;;;;;7.20;6.13;;;;;;;22.37;47.05;94823.69;5111358;28;20200;-82
2023/05/20 09:45:35;;;;;;;8.02;6.40;;;;;;;22.40;47.26;94798.03;5099659;28;20632;-77
2023/05/20 09:48:02;;;;;;;12.10;5.93;;;;;;;22.53;47.05;94795.63;5105992;28;20194;-83
2023/05/20 09:50:30;;;;;;;7.50;5.45;;;;;;;22.09;47.85;94793.38;5105152;28;20553;-74
2023/05/20 09:53:01;;;;;;;7.95;6.05;;;;;;;22.24;48.79;94781.13;5101883;28;20202;-76
2023/05/20 09:55:29;;;;;;;7.00;6.00;;;;;;;22.47;47.08;94786.97;5092546;28;20628;-75
2023/05/20 09:57:56;;;;;;;8.50;5.90;;;;;;;22.12;47.84;94787.84;5110509;28;20225;-75
2023/05/20 10:00:23;;;;;;;7.78;6.00;;;;;;;22.08;47.51;94786.28;5095327;28;20210;-77
2023/05/20 10:02:52;;;;;;;8.18;6.68;;;;;;;22.76;46.83;94778.56;5104584;28;20254;-78
2023/05/20 10:05:22;;;;;;;9.30;6.70;;;;;;;23.12;46.19;94766.16;5110504;28;20198;-78
2023/05/20 10:08:22;;;;;;;9.98;6.50;;;;;;;23.10;46.71;94762.25;5094679;28;20228;-79
2023/05/20 10:10:54;;;;;;;6.63;5.45;;;;;;;22.61;46.41;94759.28;5107136;28;20194;-74
2023/05/20 10:13:49;;;;;;;9.10;6.30;;;;;;;22.53;47.29;94765.25;5111404;28;20200;-78
2023/05/20 10:16:28;;;;;;;9.75;5.88;;;;;;;22.66;44.81;94767.16;5111157;28;20221;-74
2023/05/20 10:19:07;;;;;;;7.72;5.68;;;;;;;22.80;45.57;94748.97;5105641;28;20234;-76
2023/05/20 10:21:35;;;;;;;8.30;5.00;;;;;;;23.22;44.73;94761.75;5107219;28;20197;-79
2023/05/20 10:24:08;;;;;;;7.70;5.45;;;;;;;22.53;46.12;94774.31;5110892;28;20590;-79
2023/05/20 10:26:36;;;;;;;7.50;5.18;;;;;;;21.83;48.17;94758.69;5110202;28;20717;-74
2023/05/20 10:29:15;;;;;;;6.18;5.13;;;;;;;22.27;47.36;94744.44;5099246;28;20194;-81
2023/05/20 10:31:45;;;;;;;8.00;4.57;;;;;;;22.46;45.33;94748.69;5107324;28;20193;-75
2023/05/20 10:34:16;;;;;;;6.38;4.10;;;;;;;22.50;43.00;94736.47;5102600;28;20186;-81
2023/05/20 10:36:48;;;;;;;8.75;4.65;;;;;;;22.56;43.32;94734.06;5101722;28;20276;-78
2023/05/20 10:39:16;;;;;;;6.55;4.38;;;;;;;22.50;42.48;94755.78;5106452;28;20241;-79
2023/05/20 10:41:43;;;;;;;4.50;3.53;;;;;;;22.39;43.39;94751.50;5108953;28;20209;-76
2023/05/20 10:44:10;;;;;;;6.57;4.55;;;;;;;22.34;44.33;94727.84;5108258;28;20206;-78
2023/05/20 10:46:38;;;;;;;7.95;3.95;;;;;;;23.00;43.20;94725.16;5110313;28;20571;-82
2023/05/20 10:49:06;;;;;;;7.63;4.25;;;;;;;23.09;42.51;94720.00;5108544;28;20353;-78
2023/05/20 10:51:36;;;;;;;7.35;3.67;;;;;;;22.59;41.17;94739.56;5110467;28;20250;-77
2023/05/20 10:54:03;;;;;;;6.57;3.95;;;;;;;22.27;42.80;94716.84;5108064;28;20201;-79
2023/05/20 10:56:30;;;;;;;5.68;4.05;;;;;;;22.19;43.53;94709.75;5102485;28;20202;-80
2023/05/20 10:58:57;;;;;;;5.65;3.58;;;;;;;22.20;44.20;94711.34;5110004;28;20225;-78
2023/05/20 11:01:25;;;;;;;5.93;4.20;;;;;;;22.50;44.18;94719.91;5110274;28;20197;-76
2023/05/20 11:03:54;;;;;;;6.05;4.43;;;;;;;22.60;43.04;94702.47;5104215;28;20631;-80
2023/05/20 11:06:27;;;;;;;5.80;4.30;;;;;;;23.03;43.40;94707.78;5110402;28;20606;-81
2023/05/20 11:08:55;;;;;;;5.50;4.43;;;;;;;22.92;42.94;94716.16;5109878;28;20206;-81
2023/05/20 11:11:22;;;;;;;9.68;4.57;;;;;;;22.08;44.15;94709.81;5109996;28;20567;-81
2023/05/20 11:13:51;;;;;;;6.72;4.43;;;;;;;22.13;44.10;94703.09;5110678;28;20201;-81
2023/05/20 11:16:19;;;;;;;6.53;4.60;;;;;;;22.79;43.70;94697.69;5109997;28;20337;-78
2023/05/20 11:18:49;;;;;;;6.47;4.53;;;;;;;23.01;42.12;94693.59;5109315;28;20244;-79
2023/05/20 11:21:15;;;;;;;7.65;4.82;;;;;;;22.90;42.30;94688.13;5110095;28;20798;-81
2023/05/20 11:23:42;;;;;;;12.07;4.97;;;;;;;22.32;43.06;94691.56;5109953;28;20542;-76
2023/05/20 11:26:11;;;;;;;6.45;4.85;;;;;;;22.17;43.37;94690.06;5109934;28;20209;-79
2023/05/20 11:28:38;;;;;;;6.25;4.72;;;;;;;22.29;43.86;94698.69;5110169;28;20216;-78
2023/05/20 11:31:06;;;;;;;7.10;5.00;;;;;;;22.46;43.42;94658.38;5109733;28;20197;-85
2023/05/20 11:33:32;;;;;;;7.50;5.00;;;;;;;22.25;45.00;94669.53;5105310;28;20592;-76
2023/05/20 11:35:59;;;;;;;8.68;4.38;;;;;;;22.15;44.22;94703.47;5104306;28;20209;-79